sensor_id;sensor_type;location;lat;lon;timestamp;temperature;humidity
3312;DHT22;1668;49.648;8.570;2023-09-19T00:00:16;17.40;99.90
3312;DHT22;1668;49.648;8.570;2023-09-19T00:02:46;17.40;99.90
3312;DHT22;1668;49.648;8.570;2023-09-19T00:05:13;17.40;99.90
3312;DHT22;1668;49.648;8.570;2023-09-19T00:07:40;17.40;99.90
3312;DHT22;1668;49.648;8.570;2023-09-19T00:10:07;17.30;99.90
3312;DHT22;1668;49.648;8.570;2023-09-19T00:12:35;17.30;99.90
3312;DHT22;1668;49.648;8.570;2023-09-19T00:15:02;17.30;99.90
3312;DHT22;1668;49.648;8.570;2023-09-19T00:17:29;17.30;99.90
3312;DHT22;1668;49.648;8.570;2023-09-19T00:19:58;17.30;99.90
3312;DHT22;1668;49.648;8.570;2023-09-19T00:22:32;17.30;99.90
3312;DHT22;1668;49.648;8.570;2023-09-19T00:24:59;17.30;99.90
3312;DHT22;1668;49.648;8.570;2023-09-19T00:27:26;17.30;99.90
3312;DHT22;1668;49.648;8.570;2023-09-19T00:29:53;17.30;99.90
3312;DHT22;1668;49.648;8.570;2023-09-19T00:32:21;17.30;99.90
3312;DHT22;1668;49.648;8.570;2023-09-19T00:34:48;17.30;99.90
3312;DHT22;1668;49.648;8.570;2023-09-19T00:37:16;17.30;99.90
3312;DHT22;1668;49.648;8.570;2023-09-19T00:39:43;17.30;99.90
3312;DHT22;1668;49.648;8.570;2023-09-19T00:42:18;17.20;99.90
3312;DHT22;1668;49.648;8.570;2023-09-19T00:44:46;17.20;99.90
3312;DHT22;1668;49.648;8.570;2023-09-19T00:47:16;17.20;99.90
3312;DHT22;1668;49.648;8.570;2023-09-19T00:49:43;17.20;99.90
3312;DHT22;1668;49.648;8.570;2023-09-19T00:52:11;17.20;99.90
3312;DHT22;1668;49.648;8.570;2023-09-19T00:54:40;17.20;99.90
3312;DHT22;1668;49.648;8.570;2023-09-19T00:57:07;17.20;99.90
3312;DHT22;1668;49.648;8.570;2023-09-19T00:59:34;17.10;99.90
3312;DHT22;1668;49.648;8.570;2023-09-19T01:02:02;17.10;99.90
3312;DHT22;1668;49.648;8.570;2023-09-19T01:04:29;17.10;99.90
3312;DHT22;1668;49.648;8.570;2023-09-19T01:06:57;17.10;99.90
3312;DHT22;1668;49.648;8.570;2023-09-19T01:09:24;17.10;99.90
3312;DHT22;1668;49.648;8.570;2023-09-19T01:11:58;17.10;99.90
3312;DHT22;1668;49.648;8.570;2023-09-19T01:14:34;17.10;99.90
3312;DHT22;1668;49.648;8.570;2023-09-19T01:17:09;17.10;99.90
3312;DHT22;1668;49.648;8.570;2023-09-19T01:20:07;17.20;99.90
3312;DHT22;1668;49.648;8.570;2023-09-19T01:22:43;17.10;99.90
3312;DHT22;1668;49.648;8.570;2023-09-19T01:25:42;17.20;99.90
3312;DHT22;1668;49.648;8.570;2023-09-19T01:28:34;17.20;99.90
3312;DHT22;1668;49.648;8.570;2023-09-19T01:31:09;17.20;99.90
3312;DHT22;1668;49.648;8.570;2023-09-19T01:33:56;17.20;99.90
3312;DHT22;1668;49.648;8.570;2023-09-19T01:36:25;17.20;99.90
3312;DHT22;1668;49.648;8.570;2023-09-19T01:38:52;17.20;99.90
3312;DHT22;1668;49.648;8.570;2023-09-19T01:41:26;17.20;99.90
3312;DHT22;1668;49.648;8.570;2023-09-19T01:43:56;17.10;99.90
3312;DHT22;1668;49.648;8.570;2023-09-19T01:46:31;17.10;99.90
3312;DHT22;1668;49.648;8.570;2023-09-19T01:49:10;17.10;99.90
3312;DHT22;1668;49.648;8.570;2023-09-19T01:51:46;17.20;99.90
3312;DHT22;1668;49.648;8.570;2023-09-19T01:54:27;17.10;99.90
3312;DHT22;1668;49.648;8.570;2023-09-19T01:57:01;17.10;99.90
3312;DHT22;1668;49.648;8.570;2023-09-19T01:59:35;17.10;99.90
3312;DHT22;1668;49.648;8.570;2023-09-19T02:02:07;17.10;99.90
3312;DHT22;1668;49.648;8.570;2023-09-19T02:04:35;17.10;99.90
3312;DHT22;1668;49.648;8.570;2023-09-19T02:07:02;17.10;99.90
3312;DHT22;1668;49.648;8.570;2023-09-19T02:09:31;17.10;99.90
3312;DHT22;1668;49.648;8.570;2023-09-19T02:11:58;17.10;99.90
3312;DHT22;1668;49.648;8.570;2023-09-19T02:14:25;17.10;99.90
3312;DHT22;1668;49.648;8.570;2023-09-19T02:16:53;17.10;99.90
3312;DHT22;1668;49.648;8.570;2023-09-19T02:19:21;17.10;99.90
3312;DHT22;1668;49.648;8.570;2023-09-19T02:21:48;17.10;99.90
3312;DHT22;1668;49.648;8.570;2023-09-19T02:24:15;17.00;99.90
3312;DHT22;1668;49.648;8.570;2023-09-19T02:26:42;17.00;99.90
3312;DHT22;1668;49.648;8.570;2023-09-19T02:29:09;17.10;99.90
3312;DHT22;1668;49.648;8.570;2023-09-19T02:31:38;17.10;99.90
3312;DHT22;1668;49.648;8.570;2023-09-19T02:34:08;17.10;99.90
3312;DHT22;1668;49.648;8.570;2023-09-19T02:36:36;17.10;99.90
3312;DHT22;1668;49.648;8.570;2023-09-19T02:39:03;17.10;99.90
3312;DHT22;1668;49.648;8.570;2023-09-19T02:41:31;17.10;99.90
3312;DHT22;1668;49.648;8.570;2023-09-19T02:43:58;17.10;99.90
3312;DHT22;1668;49.648;8.570;2023-09-19T02:46:27;17.10;99.90
3312;DHT22;1668;49.648;8.570;2023-09-19T02:48:54;17.00;99.90
3312;DHT22;1668;49.648;8.570;2023-09-19T02:51:21;17.00;99.90
3312;DHT22;1668;49.648;8.570;2023-09-19T02:53:49;17.00;99.90
3312;DHT22;1668;49.648;8.570;2023-09-19T02:56:17;17.10;99.90
3312;DHT22;1668;49.648;8.570;2023-09-19T02:58:44;17.10;99.90
3312;DHT22;1668;49.648;8.570;2023-09-19T03:01:11;17.00;99.90
3312;DHT22;1668;49.648;8.570;2023-09-19T03:03:38;17.00;99.90
3312;DHT22;1668;49.648;8.570;2023-09-19T03:06:06;17.00;99.90
3312;DHT22;1668;49.648;8.570;2023-09-19T03:08:34;17.00;99.90
3312;DHT22;1668;49.648;8.570;2023-09-19T03:11:04;17.00;99.90
3312;DHT22;1668;49.648;8.570;2023-09-19T03:13:33;16.90;99.90
3312;DHT22;1668;49.648;8.570;2023-09-19T03:16:02;16.90;99.90
3312;DHT22;1668;49.648;8.570;2023-09-19T03:18:31;16.90;99.90
3312;DHT22;1668;49.648;8.570;2023-09-19T03:20:58;17.00;99.90
3312;DHT22;1668;49.648;8.570;2023-09-19T03:23:26;16.90;99.90
3312;DHT22;1668;49.648;8.570;2023-09-19T03:25:53;16.90;99.90
3312;DHT22;1668;49.648;8.570;2023-09-19T03:28:23;16.90;99.90
3312;DHT22;1668;49.648;8.570;2023-09-19T03:30:58;16.90;99.90
3312;DHT22;1668;49.648;8.570;2023-09-19T03:33:26;16.90;99.90
3312;DHT22;1668;49.648;8.570;2023-09-19T03:35:53;16.90;99.90
3312;DHT22;1668;49.648;8.570;2023-09-19T03:38:20;16.90;99.90
3312;DHT22;1668;49.648;8.570;2023-09-19T03:40:47;16.80;99.90
3312;DHT22;1668;49.648;8.570;2023-09-19T03:43:14;16.80;99.90
3312;DHT22;1668;49.648;8.570;2023-09-19T03:45:42;16.80;99.90
3312;DHT22;1668;49.648;8.570;2023-09-19T03:48:09;16.80;99.90
3312;DHT22;1668;49.648;8.570;2023-09-19T03:50:36;16.80;99.90
3312;DHT22;1668;49.648;8.570;2023-09-19T03:53:03;16.70;99.90
3312;DHT22;1668;49.648;8.570;2023-09-19T03:55:30;16.80;99.90
3312;DHT22;1668;49.648;8.570;2023-09-19T03:57:57;16.70;99.90
3312;DHT22;1668;49.648;8.570;2023-09-19T04:00:24;16.70;99.90
3312;DHT22;1668;49.648;8.570;2023-09-19T04:02:53;16.70;99.90
3312;DHT22;1668;49.648;8.570;2023-09-19T04:05:21;16.70;99.90
3312;DHT22;1668;49.648;8.570;2023-09-19T04:07:48;16.70;99.90
3312;DHT22;1668;49.648;8.570;2023-09-19T04:10:15;16.60;99.90
3312;DHT22;1668;49.648;8.570;2023-09-19T04:12:50;16.60;99.90
3312;DHT22;1668;49.648;8.570;2023-09-19T04:15:18;16.60;99.90
3312;DHT22;1668;49.648;8.570;2023-09-19T04:17:44;16.60;99.90
3312;DHT22;1668;49.648;8.570;2023-09-19T04:20:13;16.50;99.90
3312;DHT22;1668;49.648;8.570;2023-09-19T04:22:39;16.50;99.90
3312;DHT22;1668;49.648;8.570;2023-09-19T04:25:07;16.50;99.90
3312;DHT22;1668;49.648;8.570;2023-09-19T04:27:34;16.40;99.90
3312;DHT22;1668;49.648;8.570;2023-09-19T04:30:00;16.50;99.90
3312;DHT22;1668;49.648;8.570;2023-09-19T04:32:29;16.50;99.90
3312;DHT22;1668;49.648;8.570;2023-09-19T04:34:57;16.40;99.90
3312;DHT22;1668;49.648;8.570;2023-09-19T04:37:29;16.50;99.90
3312;DHT22;1668;49.648;8.570;2023-09-19T04:39:55;16.40;99.90
3312;DHT22;1668;49.648;8.570;2023-09-19T04:42:22;16.40;99.90
3312;DHT22;1668;49.648;8.570;2023-09-19T04:44:50;16.40;99.90
3312;DHT22;1668;49.648;8.570;2023-09-19T04:47:19;16.40;99.90
3312;DHT22;1668;49.648;8.570;2023-09-19T04:49:47;16.30;99.90
3312;DHT22;1668;49.648;8.570;2023-09-19T04:52:14;16.30;99.90
3312;DHT22;1668;49.648;8.570;2023-09-19T04:54:43;16.30;99.90
3312;DHT22;1668;49.648;8.570;2023-09-19T04:57:10;16.30;99.90
3312;DHT22;1668;49.648;8.570;2023-09-19T04:59:38;16.30;99.90
3312;DHT22;1668;49.648;8.570;2023-09-19T05:02:06;16.20;99.90
3312;DHT22;1668;49.648;8.570;2023-09-19T05:04:34;16.20;99.90
3312;DHT22;1668;49.648;8.570;2023-09-19T05:07:01;16.20;99.90
3312;DHT22;1668;49.648;8.570;2023-09-19T05:09:28;16.30;99.90
3312;DHT22;1668;49.648;8.570;2023-09-19T05:11:57;16.20;99.90
3312;DHT22;1668;49.648;8.570;2023-09-19T05:14:24;16.20;99.90
3312;DHT22;1668;49.648;8.570;2023-09-19T05:16:50;16.20;99.90
3312;DHT22;1668;49.648;8.570;2023-09-19T05:19:17;16.20;99.90
3312;DHT22;1668;49.648;8.570;2023-09-19T05:21:44;16.20;99.90
3312;DHT22;1668;49.648;8.570;2023-09-19T05:24:12;16.20;99.90
3312;DHT22;1668;49.648;8.570;2023-09-19T05:26:40;16.20;99.90
3312;DHT22;1668;49.648;8.570;2023-09-19T05:29:08;16.10;99.90
3312;DHT22;1668;49.648;8.570;2023-09-19T05:31:34;16.10;99.90
3312;DHT22;1668;49.648;8.570;2023-09-19T05:34:06;16.10;99.90
3312;DHT22;1668;49.648;8.570;2023-09-19T05:36:33;16.10;99.90
3312;DHT22;1668;49.648;8.570;2023-09-19T05:39:00;16.10;99.90
3312;DHT22;1668;49.648;8.570;2023-09-19T05:41:27;16.10;99.90
3312;DHT22;1668;49.648;8.570;2023-09-19T05:43:53;16.10;99.90
3312;DHT22;1668;49.648;8.570;2023-09-19T05:46:22;16.10;99.90
3312;DHT22;1668;49.648;8.570;2023-09-19T05:48:48;16.00;99.90
3312;DHT22;1668;49.648;8.570;2023-09-19T05:51:16;16.10;99.90
3312;DHT22;1668;49.648;8.570;2023-09-19T05:53:48;16.10;99.90
3312;DHT22;1668;49.648;8.570;2023-09-19T05:56:15;16.10;99.90
3312;DHT22;1668;49.648;8.570;2023-09-19T05:58:44;16.10;99.90
3312;DHT22;1668;49.648;8.570;2023-09-19T06:01:11;16.10;99.90
3312;DHT22;1668;49.648;8.570;2023-09-19T06:03:39;16.10;99.90
3312;DHT22;1668;49.648;8.570;2023-09-19T06:06:06;16.10;99.90
3312;DHT22;1668;49.648;8.570;2023-09-19T06:08:33;16.10;99.90
3312;DHT22;1668;49.648;8.570;2023-09-19T06:11:00;16.10;99.90
3312;DHT22;1668;49.648;8.570;2023-09-19T06:13:28;16.00;99.90
3312;DHT22;1668;49.648;8.570;2023-09-19T06:15:55;16.10;99.90
3312;DHT22;1668;49.648;8.570;2023-09-19T06:18:24;16.10;99.90
3312;DHT22;1668;49.648;8.570;2023-09-19T06:20:53;16.10;99.90
3312;DHT22;1668;49.648;8.570;2023-09-19T06:23:20;16.10;99.90
3312;DHT22;1668;49.648;8.570;2023-09-19T06:25:48;16.20;99.90
3312;DHT22;1668;49.648;8.570;2023-09-19T06:28:15;16.20;99.90
3312;DHT22;1668;49.648;8.570;2023-09-19T06:30:46;16.20;99.90
3312;DHT22;1668;49.648;8.570;2023-09-19T06:33:13;16.20;99.90
3312;DHT22;1668;49.648;8.570;2023-09-19T06:35:40;16.20;99.90
3312;DHT22;1668;49.648;8.570;2023-09-19T06:38:08;16.30;99.90
3312;DHT22;1668;49.648;8.570;2023-09-19T06:40:38;16.30;99.90
3312;DHT22;1668;49.648;8.570;2023-09-19T06:43:09;16.30;99.90
3312;DHT22;1668;49.648;8.570;2023-09-19T06:45:36;16.40;99.90
3312;DHT22;1668;49.648;8.570;2023-09-19T06:48:03;16.40;99.90
3312;DHT22;1668;49.648;8.570;2023-09-19T06:50:31;16.40;99.90
3312;DHT22;1668;49.648;8.570;2023-09-19T06:52:58;16.40;99.90
3312;DHT22;1668;49.648;8.570;2023-09-19T06:55:27;16.40;99.90
3312;DHT22;1668;49.648;8.570;2023-09-19T06:57:56;16.40;99.90
3312;DHT22;1668;49.648;8.570;2023-09-19T07:00:24;16.50;99.90
3312;DHT22;1668;49.648;8.570;2023-09-19T07:02:57;16.50;99.90
3312;DHT22;1668;49.648;8.570;2023-09-19T07:05:26;16.50;99.90
3312;DHT22;1668;49.648;8.570;2023-09-19T07:07:54;16.50;99.90
3312;DHT22;1668;49.648;8.570;2023-09-19T07:10:21;16.50;99.90
3312;DHT22;1668;49.648;8.570;2023-09-19T07:12:55;16.50;99.90
3312;DHT22;1668;49.648;8.570;2023-09-19T07:15:22;16.50;99.90
3312;DHT22;1668;49.648;8.570;2023-09-19T07:17:50;16.50;99.90
3312;DHT22;1668;49.648;8.570;2023-09-19T07:20:17;16.60;99.90
3312;DHT22;1668;49.648;8.570;2023-09-19T07:22:44;16.60;99.90
3312;DHT22;1668;49.648;8.570;2023-09-19T07:25:11;16.60;99.90
3312;DHT22;1668;49.648;8.570;2023-09-19T07:27:39;16.60;99.90
3312;DHT22;1668;49.648;8.570;2023-09-19T07:30:08;16.70;99.90
3312;DHT22;1668;49.648;8.570;2023-09-19T07:32:36;16.70;99.90
3312;DHT22;1668;49.648;8.570;2023-09-19T07:35:04;16.70;99.90
3312;DHT22;1668;49.648;8.570;2023-09-19T07:37:32;16.80;99.90
3312;DHT22;1668;49.648;8.570;2023-09-19T07:39:59;16.80;99.90
3312;DHT22;1668;49.648;8.570;2023-09-19T07:42:26;16.90;99.90
3312;DHT22;1668;49.648;8.570;2023-09-19T07:44:53;16.90;99.90
3312;DHT22;1668;49.648;8.570;2023-09-19T07:47:21;16.90;99.90
3312;DHT22;1668;49.648;8.570;2023-09-19T07:49:48;17.00;99.90
3312;DHT22;1668;49.648;8.570;2023-09-19T07:52:14;17.10;99.90
3312;DHT22;1668;49.648;8.570;2023-09-19T07:54:42;17.10;99.90
3312;DHT22;1668;49.648;8.570;2023-09-19T07:57:09;17.10;99.90
3312;DHT22;1668;49.648;8.570;2023-09-19T07:59:36;17.20;99.90
3312;DHT22;1668;49.648;8.570;2023-09-19T08:02:04;17.20;99.90
3312;DHT22;1668;49.648;8.570;2023-09-19T08:04:32;17.30;99.90
3312;DHT22;1668;49.648;8.570;2023-09-19T08:06:59;17.30;99.90
3312;DHT22;1668;49.648;8.570;2023-09-19T08:09:29;17.30;99.90
3312;DHT22;1668;49.648;8.570;2023-09-19T08:11:58;17.40;99.90
3312;DHT22;1668;49.648;8.570;2023-09-19T08:14:28;17.40;99.90
3312;DHT22;1668;49.648;8.570;2023-09-19T08:16:56;17.50;99.90
3312;DHT22;1668;49.648;8.570;2023-09-19T08:19:23;17.50;99.90
3312;DHT22;1668;49.648;8.570;2023-09-19T08:21:55;17.60;99.90
3312;DHT22;1668;49.648;8.570;2023-09-19T08:24:24;17.60;99.90
3312;DHT22;1668;49.648;8.570;2023-09-19T08:26:53;17.60;99.90
3312;DHT22;1668;49.648;8.570;2023-09-19T08:29:20;17.70;99.90
3312;DHT22;1668;49.648;8.570;2023-09-19T08:31:47;17.70;99.90
3312;DHT22;1668;49.648;8.570;2023-09-19T08:34:15;17.70;95.50
3312;DHT22;1668;49.648;8.570;2023-09-19T08:36:42;17.70;94.70
3312;DHT22;1668;49.648;8.570;2023-09-19T08:39:11;17.70;96.20
3312;DHT22;1668;49.648;8.570;2023-09-19T08:41:39;17.70;95.20
3312;DHT22;1668;49.648;8.570;2023-09-19T08:44:06;17.80;95.90
3312;DHT22;1668;49.648;8.570;2023-09-19T08:46:34;17.80;95.80
3312;DHT22;1668;49.648;8.570;2023-09-19T08:49:04;17.90;94.40
3312;DHT22;1668;49.648;8.570;2023-09-19T08:51:41;17.90;91.00
3312;DHT22;1668;49.648;8.570;2023-09-19T08:54:22;17.90;89.50
3312;DHT22;1668;49.648;8.570;2023-09-19T08:56:53;17.90;88.40
3312;DHT22;1668;49.648;8.570;2023-09-19T08:59:22;18.00;89.90
3312;DHT22;1668;49.648;8.570;2023-09-19T09:01:51;18.00;88.20
3312;DHT22;1668;49.648;8.570;2023-09-19T09:04:20;18.10;87.90
3312;DHT22;1668;49.648;8.570;2023-09-19T09:06:49;18.10;87.60
3312;DHT22;1668;49.648;8.570;2023-09-19T09:09:20;18.10;88.30
3312;DHT22;1668;49.648;8.570;2023-09-19T09:11:48;18.20;85.20
3312;DHT22;1668;49.648;8.570;2023-09-19T09:14:19;18.20;85.50
3312;DHT22;1668;49.648;8.570;2023-09-19T09:16:46;18.30;84.80
3312;DHT22;1668;49.648;8.570;2023-09-19T09:19:14;18.30;82.90
3312;DHT22;1668;49.648;8.570;2023-09-19T09:21:49;18.40;82.80
3312;DHT22;1668;49.648;8.570;2023-09-19T09:24:28;18.40;84.50
3312;DHT22;1668;49.648;8.570;2023-09-19T09:26:56;18.40;84.50
3312;DHT22;1668;49.648;8.570;2023-09-19T09:29:41;18.50;80.50
3312;DHT22;1668;49.648;8.570;2023-09-19T09:32:21;18.40;82.80
3312;DHT22;1668;49.648;8.570;2023-09-19T09:34:50;18.50;84.20
3312;DHT22;1668;49.648;8.570;2023-09-19T09:37:18;18.60;83.60
3312;DHT22;1668;49.648;8.570;2023-09-19T09:39:54;18.60;80.20
3312;DHT22;1668;49.648;8.570;2023-09-19T09:42:33;18.60;78.90
3312;DHT22;1668;49.648;8.570;2023-09-19T09:45:22;18.60;78.90
3312;DHT22;1668;49.648;8.570;2023-09-19T09:47:54;18.60;79.40
3312;DHT22;1668;49.648;8.570;2023-09-19T09:50:25;18.70;78.50
3312;DHT22;1668;49.648;8.570;2023-09-19T09:52:55;18.70;77.30
3312;DHT22;1668;49.648;8.570;2023-09-19T09:55:56;18.80;76.90
3312;DHT22;1668;49.648;8.570;2023-09-19T09:58:23;18.80;75.00
3312;DHT22;1668;49.648;8.570;2023-09-19T10:00:54;18.90;75.10
3312;DHT22;1668;49.648;8.570;2023-09-19T10:03:33;18.90;75.50
3312;DHT22;1668;49.648;8.570;2023-09-19T10:06:04;18.90;71.70
3312;DHT22;1668;49.648;8.570;2023-09-19T10:08:58;18.90;71.60
3312;DHT22;1668;49.648;8.570;2023-09-19T10:11:33;19.00;71.40
3312;DHT22;1668;49.648;8.570;2023-09-19T10:14:03;19.00;72.20
3312;DHT22;1668;49.648;8.570;2023-09-19T10:16:32;19.00;69.60
3312;DHT22;1668;49.648;8.570;2023-09-19T10:19:02;19.10;72.40
3312;DHT22;1668;49.648;8.570;2023-09-19T10:21:31;19.10;71.70
3312;DHT22;1668;49.648;8.570;2023-09-19T10:23:59;19.20;71.60
3312;DHT22;1668;49.648;8.570;2023-09-19T10:26:27;19.30;72.30
3312;DHT22;1668;49.648;8.570;2023-09-19T10:28:59;19.40;72.20
3312;DHT22;1668;49.648;8.570;2023-09-19T10:31:28;19.30;70.90
3312;DHT22;1668;49.648;8.570;2023-09-19T10:33:55;19.40;71.90
3312;DHT22;1668;49.648;8.570;2023-09-19T10:36:24;19.50;72.10
3312;DHT22;1668;49.648;8.570;2023-09-19T10:38:54;19.50;70.70
3312;DHT22;1668;49.648;8.570;2023-09-19T10:41:24;19.60;69.50
3312;DHT22;1668;49.648;8.570;2023-09-19T10:43:51;19.60;70.00
3312;DHT22;1668;49.648;8.570;2023-09-19T10:46:21;19.80;69.40
3312;DHT22;1668;49.648;8.570;2023-09-19T10:48:50;19.90;68.40
3312;DHT22;1668;49.648;8.570;2023-09-19T10:51:23;20.00;68.10
3312;DHT22;1668;49.648;8.570;2023-09-19T10:53:56;20.10;67.40
3312;DHT22;1668;49.648;8.570;2023-09-19T10:56:29;20.10;67.50
3312;DHT22;1668;49.648;8.570;2023-09-19T10:59:07;20.10;66.70
3312;DHT22;1668;49.648;8.570;2023-09-19T11:01:48;20.10;67.00
3312;DHT22;1668;49.648;8.570;2023-09-19T11:04:24;20.30;68.10
3312;DHT22;1668;49.648;8.570;2023-09-19T11:07:05;20.40;66.10
3312;DHT22;1668;49.648;8.570;2023-09-19T11:09:50;20.50;66.60
3312;DHT22;1668;49.648;8.570;2023-09-19T11:12:50;20.60;65.60
3312;DHT22;1668;49.648;8.570;2023-09-19T11:18:53;20.80;64.20
3312;DHT22;1668;49.648;8.570;2023-09-19T11:21:54;20.80;62.30
3312;DHT22;1668;49.648;8.570;2023-09-19T11:24:33;20.90;60.70
3312;DHT22;1668;49.648;8.570;2023-09-19T11:27:16;20.90;59.90
3312;DHT22;1668;49.648;8.570;2023-09-19T11:29:44;20.90;58.80
3312;DHT22;1668;49.648;8.570;2023-09-19T11:32:11;20.90;59.60
3312;DHT22;1668;49.648;8.570;2023-09-19T11:34:45;21.10;59.30
3312;DHT22;1668;49.648;8.570;2023-09-19T11:40:28;20.90;58.30
3312;DHT22;1668;49.648;8.570;2023-09-19T11:42:56;20.90;58.00
3312;DHT22;1668;49.648;8.570;2023-09-19T11:48:32;21.00;58.60
3312;DHT22;1668;49.648;8.570;2023-09-19T11:51:03;21.20;58.60
3312;DHT22;1668;49.648;8.570;2023-09-19T11:53:41;21.10;58.40
3312;DHT22;1668;49.648;8.570;2023-09-19T11:56:09;21.00;56.10
3312;DHT22;1668;49.648;8.570;2023-09-19T11:58:37;21.00;57.40
3312;DHT22;1668;49.648;8.570;2023-09-19T12:01:05;21.00;56.50
3312;DHT22;1668;49.648;8.570;2023-09-19T12:03:40;21.20;57.90
3312;DHT22;1668;49.648;8.570;2023-09-19T12:06:13;21.20;57.30
3312;DHT22;1668;49.648;8.570;2023-09-19T12:08:41;21.30;57.10
3312;DHT22;1668;49.648;8.570;2023-09-19T12:11:13;21.30;57.70
3312;DHT22;1668;49.648;8.570;2023-09-19T12:13:44;21.20;56.00
3312;DHT22;1668;49.648;8.570;2023-09-19T12:16:15;21.20;56.30
3312;DHT22;1668;49.648;8.570;2023-09-19T12:18:44;21.50;57.80
3312;DHT22;1668;49.648;8.570;2023-09-19T12:21:23;21.50;56.30
3312;DHT22;1668;49.648;8.570;2023-09-19T12:24:06;21.70;56.30
3312;DHT22;1668;49.648;8.570;2023-09-19T12:26:41;21.70;55.20
3312;DHT22;1668;49.648;8.570;2023-09-19T12:29:16;21.70;54.80
3312;DHT22;1668;49.648;8.570;2023-09-19T12:31:48;21.70;55.20
3312;DHT22;1668;49.648;8.570;2023-09-19T12:34:17;21.50;53.80
3312;DHT22;1668;49.648;8.570;2023-09-19T12:36:47;21.60;54.20
3312;DHT22;1668;49.648;8.570;2023-09-19T12:39:23;21.70;55.90
3312;DHT22;1668;49.648;8.570;2023-09-19T12:41:51;21.70;54.60
3312;DHT22;1668;49.648;8.570;2023-09-19T12:44:19;21.90;55.20
3312;DHT22;1668;49.648;8.570;2023-09-19T12:46:46;22.00;51.20
3312;DHT22;1668;49.648;8.570;2023-09-19T12:49:16;22.10;50.60
3312;DHT22;1668;49.648;8.570;2023-09-19T12:51:44;22.20;51.30
3312;DHT22;1668;49.648;8.570;2023-09-19T12:54:13;22.20;51.10
3312;DHT22;1668;49.648;8.570;2023-09-19T12:56:42;22.20;48.80
3312;DHT22;1668;49.648;8.570;2023-09-19T12:59:12;22.30;49.80
3312;DHT22;1668;49.648;8.570;2023-09-19T13:01:40;22.40;47.70
3312;DHT22;1668;49.648;8.570;2023-09-19T13:04:14;22.50;48.00
3312;DHT22;1668;49.648;8.570;2023-09-19T13:06:43;22.50;47.80
3312;DHT22;1668;49.648;8.570;2023-09-19T13:09:13;22.50;47.50
3312;DHT22;1668;49.648;8.570;2023-09-19T13:11:41;22.50;47.10
3312;DHT22;1668;49.648;8.570;2023-09-19T13:14:15;22.40;48.20
3312;DHT22;1668;49.648;8.570;2023-09-19T13:16:56;22.40;47.50
3312;DHT22;1668;49.648;8.570;2023-09-19T13:19:41;22.30;47.20
3312;DHT22;1668;49.648;8.570;2023-09-19T13:22:38;22.40;48.30
3312;DHT22;1668;49.648;8.570;2023-09-19T13:25:08;22.30;48.20
3312;DHT22;1668;49.648;8.570;2023-09-19T13:27:40;22.30;49.80
3312;DHT22;1668;49.648;8.570;2023-09-19T13:30:07;22.30;51.00
3312;DHT22;1668;49.648;8.570;2023-09-19T13:32:35;22.20;50.10
3312;DHT22;1668;49.648;8.570;2023-09-19T13:35:01;22.20;50.50
3312;DHT22;1668;49.648;8.570;2023-09-19T13:37:30;22.30;49.70
3312;DHT22;1668;49.648;8.570;2023-09-19T13:39:57;22.40;50.90
3312;DHT22;1668;49.648;8.570;2023-09-19T13:42:26;22.40;49.90
3312;DHT22;1668;49.648;8.570;2023-09-19T13:44:55;22.50;49.60
3312;DHT22;1668;49.648;8.570;2023-09-19T13:47:21;22.60;49.60
3312;DHT22;1668;49.648;8.570;2023-09-19T13:49:50;22.60;49.20
3312;DHT22;1668;49.648;8.570;2023-09-19T13:52:18;22.70;48.90
3312;DHT22;1668;49.648;8.570;2023-09-19T13:54:44;22.70;48.80
3312;DHT22;1668;49.648;8.570;2023-09-19T13:57:11;22.70;48.80
3312;DHT22;1668;49.648;8.570;2023-09-19T13:59:39;22.60;48.70
3312;DHT22;1668;49.648;8.570;2023-09-19T14:02:06;22.70;49.00
3312;DHT22;1668;49.648;8.570;2023-09-19T14:04:33;22.70;49.60
3312;DHT22;1668;49.648;8.570;2023-09-19T14:07:01;22.80;50.00
3312;DHT22;1668;49.648;8.570;2023-09-19T14:09:29;22.90;49.40
3312;DHT22;1668;49.648;8.570;2023-09-19T14:11:56;23.00;48.80
3312;DHT22;1668;49.648;8.570;2023-09-19T14:14:22;23.00;48.60
3312;DHT22;1668;49.648;8.570;2023-09-19T14:16:50;22.90;48.40
3312;DHT22;1668;49.648;8.570;2023-09-19T14:19:18;22.90;49.20
3312;DHT22;1668;49.648;8.570;2023-09-19T14:21:45;22.80;48.70
3312;DHT22;1668;49.648;8.570;2023-09-19T14:24:16;22.70;49.20
3312;DHT22;1668;49.648;8.570;2023-09-19T14:26:43;22.60;49.50
3312;DHT22;1668;49.648;8.570;2023-09-19T14:29:10;22.70;50.00
3312;DHT22;1668;49.648;8.570;2023-09-19T14:31:37;22.80;49.00
3312;DHT22;1668;49.648;8.570;2023-09-19T14:34:08;22.90;49.50
3312;DHT22;1668;49.648;8.570;2023-09-19T14:36:36;22.90;48.40
3312;DHT22;1668;49.648;8.570;2023-09-19T14:39:04;22.90;48.70
3312;DHT22;1668;49.648;8.570;2023-09-19T14:41:31;22.90;47.90
3312;DHT22;1668;49.648;8.570;2023-09-19T14:43:58;22.80;47.70
3312;DHT22;1668;49.648;8.570;2023-09-19T14:46:25;22.80;47.80
3312;DHT22;1668;49.648;8.570;2023-09-19T14:48:52;22.90;47.90
3312;DHT22;1668;49.648;8.570;2023-09-19T14:51:20;22.80;48.50
3312;DHT22;1668;49.648;8.570;2023-09-19T14:53:47;22.90;49.50
3312;DHT22;1668;49.648;8.570;2023-09-19T14:56:14;23.00;48.50
3312;DHT22;1668;49.648;8.570;2023-09-19T14:58:44;23.00;48.40
3312;DHT22;1668;49.648;8.570;2023-09-19T15:01:12;23.00;49.00
3312;DHT22;1668;49.648;8.570;2023-09-19T15:03:41;23.20;49.40
3312;DHT22;1668;49.648;8.570;2023-09-19T15:06:09;23.50;48.80
3312;DHT22;1668;49.648;8.570;2023-09-19T15:08:37;23.60;47.70
3312;DHT22;1668;49.648;8.570;2023-09-19T15:11:06;23.60;47.30
3312;DHT22;1668;49.648;8.570;2023-09-19T15:13:33;23.70;47.70
3312;DHT22;1668;49.648;8.570;2023-09-19T15:16:00;23.70;46.60
3312;DHT22;1668;49.648;8.570;2023-09-19T15:18:27;23.60;47.80
3312;DHT22;1668;49.648;8.570;2023-09-19T15:20:55;23.60;48.00
3312;DHT22;1668;49.648;8.570;2023-09-19T15:23:22;23.50;47.70
3312;DHT22;1668;49.648;8.570;2023-09-19T15:25:50;23.30;48.10
3312;DHT22;1668;49.648;8.570;2023-09-19T15:28:19;23.30;48.70
3312;DHT22;1668;49.648;8.570;2023-09-19T15:30:48;23.30;49.10
3312;DHT22;1668;49.648;8.570;2023-09-19T15:33:15;23.30;49.00
3312;DHT22;1668;49.648;8.570;2023-09-19T15:35:43;23.30;48.90
3312;DHT22;1668;49.648;8.570;2023-09-19T15:38:09;23.30;49.20
3312;DHT22;1668;49.648;8.570;2023-09-19T15:40:46;23.30;51.10
3312;DHT22;1668;49.648;8.570;2023-09-19T15:43:14;23.20;49.30
3312;DHT22;1668;49.648;8.570;2023-09-19T15:45:42;23.20;50.20
3312;DHT22;1668;49.648;8.570;2023-09-19T15:48:09;23.20;50.20
3312;DHT22;1668;49.648;8.570;2023-09-19T15:50:36;23.00;49.20
3312;DHT22;1668;49.648;8.570;2023-09-19T15:53:03;23.00;51.10
3312;DHT22;1668;49.648;8.570;2023-09-19T15:55:29;23.00;49.50
3312;DHT22;1668;49.648;8.570;2023-09-19T15:57:57;22.90;49.70
3312;DHT22;1668;49.648;8.570;2023-09-19T16:00:25;22.90;49.50
3312;DHT22;1668;49.648;8.570;2023-09-19T16:02:52;22.80;49.30
3312;DHT22;1668;49.648;8.570;2023-09-19T16:05:20;22.70;49.60
3312;DHT22;1668;49.648;8.570;2023-09-19T16:07:46;22.70;50.40
3312;DHT22;1668;49.648;8.570;2023-09-19T16:10:13;22.70;49.60
3312;DHT22;1668;49.648;8.570;2023-09-19T16:12:40;22.70;50.70
3312;DHT22;1668;49.648;8.570;2023-09-19T16:15:08;22.70;50.40
3312;DHT22;1668;49.648;8.570;2023-09-19T16:17:38;22.70;50.20
3312;DHT22;1668;49.648;8.570;2023-09-19T16:20:06;22.60;50.00
3312;DHT22;1668;49.648;8.570;2023-09-19T16:22:38;22.50;50.40
3312;DHT22;1668;49.648;8.570;2023-09-19T16:25:05;22.50;50.80
3312;DHT22;1668;49.648;8.570;2023-09-19T16:27:32;22.40;51.30